Dogpatch, Arkansas
Current Conditions -  °F | °C
As of 12:53 PM on Tuesday 21 Oct 2014 (Local Time) from KHRO Reporting Station
Clear Clear  
Wind Chill: 73°   Ceiling: Unl
Heat Index: 73°   Visibility: 10mi
Dew Point: 52°   Wind: 7mph
Humidity: 48%   Direction: 360°N
Pressure: 30.13"   Gusts: NA
Location:  36.0842°N, 93.1502°W
Report Text: KHRO 211753Z AUTO 36006KT 10SM CLR 23/11 A3013 RMK AO2 SLP193 T02280111 10233 20111 58008
Loading
Personal Weather Stations






























Interactive Weather Map
Tropical Storm Tracking
New forecast layout! Learn more

10-Day Weather Forecast

Advertisements
Track Severe Weather on mobile